createdAt,value
2023-03-01T00:01:20.266Z,102521.34
2023-03-01T00:03:47.067Z,102513.94
2023-03-01T00:06:13.605Z,102522.50
2023-03-01T00:08:40.311Z,102519.63
2023-03-01T00:11:13.579Z,102522.91
2023-03-01T00:13:40.728Z,102516.22
2023-03-01T00:16:09.384Z,102512.44
2023-03-01T00:18:35.956Z,102506.25
2023-03-01T00:21:02.605Z,102511.94
2023-03-01T00:23:29.093Z,102505.56
2023-03-01T00:25:56.035Z,102512.16
2023-03-01T00:28:22.544Z,102506.72
2023-03-01T00:30:49.181Z,102512.38
2023-03-01T00:33:15.606Z,102516.25
2023-03-01T00:35:42.030Z,102516.25
2023-03-01T00:38:09.138Z,102513.34
2023-03-01T00:40:36.228Z,102512.44
2023-03-01T00:43:03.306Z,102514.06
2023-03-01T00:45:31.931Z,102509.72
2023-03-01T00:47:58.353Z,102511.94
2023-03-01T00:50:25.146Z,102505.03
2023-03-01T00:52:55.969Z,102511.44
2023-03-01T00:55:22.556Z,102510.34
2023-03-01T00:57:49.043Z,102506.91
2023-03-01T01:00:15.727Z,102501.81
2023-03-01T01:02:42.220Z,102494.16
2023-03-01T01:05:08.886Z,102495.97
2023-03-01T01:07:35.461Z,102486.53
2023-03-01T01:10:01.925Z,102476.16
2023-03-01T01:12:28.386Z,102473.44
2023-03-01T01:14:54.778Z,102470.72
2023-03-01T01:17:21.220Z,102468.91
2023-03-01T01:19:47.689Z,102472.75
2023-03-01T01:22:14.186Z,102468.97
2023-03-01T01:24:40.623Z,102458.59
2023-03-01T01:27:08.168Z,102458.59
2023-03-01T01:29:34.595Z,102458.59
2023-03-01T01:32:01.070Z,102451.69
2023-03-01T01:34:27.492Z,102455.88
2023-03-01T01:36:54.970Z,102445.53
2023-03-01T01:39:22.035Z,102442.06
2023-03-01T01:41:48.472Z,102445.38
2023-03-01T01:44:21.549Z,102441.91
2023-03-01T01:46:51.517Z,102443.38
2023-03-01T01:49:30.825Z,102443.97
2023-03-01T01:52:15.995Z,102434.34
2023-03-01T01:54:46.704Z,102434.16
2023-03-01T01:57:16.624Z,102436.94
2023-03-01T01:59:45.309Z,102439.88
2023-03-01T02:02:12.849Z,102430.44
2023-03-01T02:04:39.620Z,102432.59
2023-03-01T02:07:19.492Z,102432.59
2023-03-01T02:09:51.442Z,102439.53
2023-03-01T02:12:19.809Z,102430.25
2023-03-01T02:14:46.248Z,102428.63
2023-03-01T02:17:14.083Z,102413.19
2023-03-01T02:20:02.097Z,102410.44
2023-03-01T02:22:33.935Z,102414.09
2023-03-01T02:25:06.984Z,102409.00
2023-03-01T02:27:39.761Z,102410.63
2023-03-01T02:30:07.509Z,102414.25
2023-03-01T02:32:33.948Z,102423.38
2023-03-01T02:35:00.479Z,102422.44
2023-03-01T02:37:27.312Z,102423.91
2023-03-01T02:40:00.993Z,102425.22
2023-03-01T02:42:32.060Z,102419.03
2023-03-01T02:44:58.840Z,102423.22
2023-03-01T02:47:25.269Z,102416.34
2023-03-01T02:49:51.700Z,102420.34
2023-03-01T02:52:24.005Z,102417.81
2023-03-01T02:55:03.899Z,102418.19
2023-03-01T02:57:32.427Z,102414.56
2023-03-01T03:00:02.101Z,102411.34
2023-03-01T03:02:37.331Z,102412.06
2023-03-01T03:05:13.573Z,102405.53
2023-03-01T03:07:42.031Z,102401.94
2023-03-01T03:10:12.223Z,102400.84
2023-03-01T03:12:39.570Z,102407.75
2023-03-01T03:15:09.708Z,102405.22
2023-03-01T03:17:38.106Z,102403.97
2023-03-01T03:20:06.015Z,102408.16
2023-03-01T03:22:34.866Z,102407.41
2023-03-01T03:25:01.319Z,102414.13
2023-03-01T03:27:28.711Z,102420.13
2023-03-01T03:29:55.128Z,102417.59
2023-03-01T03:32:21.642Z,102415.78
2023-03-01T03:34:48.065Z,102417.25
2023-03-01T03:37:34.469Z,102422.34
2023-03-01T03:40:00.898Z,102413.63
2023-03-01T03:42:27.295Z,102413.44
2023-03-01T03:44:53.794Z,102409.25
2023-03-01T03:47:20.203Z,102410.16
2023-03-01T03:49:46.665Z,102410.88
2023-03-01T03:52:14.352Z,102415.97
2023-03-01T03:54:41.563Z,102414.16
2023-03-01T03:57:08.204Z,102410.38
2023-03-01T03:59:34.625Z,102409.31
2023-03-01T04:02:01.371Z,102408.06
2023-03-01T04:04:27.830Z,102410.97
2023-03-01T04:06:54.244Z,102403.50
2023-03-01T04:09:27.862Z,102418.06
2023-03-01T04:14:22.098Z,102418.59
2023-03-01T04:16:48.507Z,102415.88
2023-03-01T04:19:16.118Z,102410.78
2023-03-01T04:21:42.551Z,102413.00
2023-03-01T04:24:10.557Z,102409.38
2023-03-01T04:26:36.960Z,102404.13
2023-03-01T04:29:03.435Z,102410.84
2023-03-01T04:31:29.879Z,102407.22
2023-03-01T04:33:56.865Z,102412.31
2023-03-01T04:36:25.937Z,102406.13
2023-03-01T04:38:52.908Z,102405.03
2023-03-01T04:41:21.458Z,102411.94
2023-03-01T04:43:47.888Z,102404.13
2023-03-01T04:46:17.231Z,102408.16
2023-03-01T04:48:45.307Z,102405.59
2023-03-01T04:51:14.481Z,102395.09
2023-03-01T04:53:41.604Z,102401.09
2023-03-01T04:56:08.230Z,102393.47
2023-03-01T04:58:34.675Z,102401.44
2023-03-01T05:01:01.169Z,102401.59
2023-03-01T05:03:28.057Z,102400.69
2023-03-01T05:05:54.592Z,102399.63
2023-03-01T05:08:21.667Z,102401.44
2023-03-01T05:10:52.980Z,102395.25
2023-03-01T05:13:23.541Z,102387.63
2023-03-01T05:15:55.377Z,102397.81
2023-03-01T05:18:22.284Z,102397.63
2023-03-01T05:20:48.716Z,102401.81
2023-03-01T05:23:15.143Z,102395.84
2023-03-01T05:25:41.559Z,102392.94
2023-03-01T05:28:12.519Z,102388.38
2023-03-01T05:30:42.309Z,102396.91
2023-03-01T05:33:14.314Z,102391.66
2023-03-01T05:35:43.155Z,102388.94
2023-03-01T05:38:16.396Z,102382.06
2023-03-01T05:40:44.581Z,102384.44
2023-03-01T05:43:11.763Z,102379.91
2023-03-01T05:45:39.195Z,102386.63
2023-03-01T05:48:06.646Z,102383.75
2023-03-01T05:50:35.381Z,102383.75
2023-03-01T05:53:06.770Z,102379.91
2023-03-01T05:55:33.945Z,102372.84
2023-03-01T05:58:04.539Z,102373.59
2023-03-01T06:00:31.602Z,102374.31
2023-03-01T06:02:59.229Z,102379.41
2023-03-01T06:05:26.222Z,102375.97
2023-03-01T06:07:53.898Z,102381.59
2023-03-01T06:10:22.015Z,102379.06
2023-03-01T06:12:48.910Z,102375.78
2023-03-01T06:15:16.732Z,102377.59
2023-03-01T06:17:44.801Z,102372.50
2023-03-01T06:20:12.673Z,102379.41
2023-03-01T06:22:39.783Z,102381.22
2023-03-01T06:25:06.717Z,102374.66
2023-03-01T06:27:33.177Z,102375.91
2023-03-01T06:29:59.637Z,102377.19
2023-03-01T06:32:26.110Z,102376.81
2023-03-01T06:34:52.566Z,102376.41
2023-03-01T06:37:19.070Z,102377.88
2023-03-01T06:39:45.541Z,102379.28
2023-03-01T06:42:12.006Z,102380.00
2023-03-01T06:44:38.746Z,102377.06
2023-03-01T06:47:05.519Z,102379.38
2023-03-01T06:49:31.936Z,102384.44
2023-03-01T06:51:58.359Z,102379.69
2023-03-01T06:54:24.923Z,102376.19
2023-03-01T06:56:51.709Z,102371.81
2023-03-01T06:59:19.555Z,102371.19
2023-03-01T07:01:46.018Z,102368.59
2023-03-01T07:04:13.868Z,102366.19
2023-03-01T07:06:40.498Z,102365.19
2023-03-01T07:09:06.951Z,102362.78
2023-03-01T07:11:33.400Z,102361.78
2023-03-01T07:14:01.016Z,102356.81
2023-03-01T07:16:27.673Z,102367.88
2023-03-01T07:18:54.178Z,102363.75
2023-03-01T07:21:20.597Z,102358.44
2023-03-01T07:23:49.195Z,102355.81
2023-03-01T07:26:15.666Z,102348.09
2023-03-01T07:28:42.090Z,102355.06
2023-03-01T07:31:08.577Z,102355.16
2023-03-01T07:33:35.041Z,102355.25
2023-03-01T07:36:03.342Z,102345.13
2023-03-01T07:38:30.376Z,102349.41
2023-03-01T07:41:01.517Z,102345.84
2023-03-01T07:43:29.166Z,102343.22
2023-03-01T07:45:55.752Z,102350.22
2023-03-01T07:48:22.225Z,102352.97
2023-03-01T07:50:48.691Z,102349.91
2023-03-01T07:53:15.187Z,102347.41
2023-03-01T07:55:41.680Z,102353.44
2023-03-01T07:58:08.131Z,102351.72
2023-03-01T08:00:34.720Z,102356.28
2023-03-01T08:03:02.041Z,102360.34
2023-03-01T08:05:29.793Z,102347.66
2023-03-01T08:07:56.314Z,102344.22
2023-03-01T08:10:22.759Z,102342.31
2023-03-01T08:12:49.257Z,102344.00
2023-03-01T08:15:15.808Z,102347.16
2023-03-01T08:17:42.301Z,102348.84
2023-03-01T08:20:10.252Z,102346.91
2023-03-01T08:22:36.759Z,102354.47
2023-03-01T08:25:03.327Z,102346.34
2023-03-01T08:27:29.815Z,102356.09
2023-03-01T08:29:56.292Z,102352.53
2023-03-01T08:32:22.918Z,102356.44
2023-03-01T08:34:49.600Z,102356.00
2023-03-01T08:37:16.081Z,102353.91
2023-03-01T08:39:42.591Z,102352.09
2023-03-01T08:42:09.243Z,102353.63
2023-03-01T08:44:36.093Z,102355.72
2023-03-01T08:47:03.354Z,102346.41
2023-03-01T08:49:29.820Z,102347.63
2023-03-01T08:51:56.302Z,102344.75
2023-03-01T08:54:23.093Z,102341.28
2023-03-01T08:56:50.004Z,102340.22
2023-03-01T08:59:19.328Z,102337.38
2023-03-01T09:01:46.156Z,102334.63
2023-03-01T09:04:13.627Z,102335.84
2023-03-01T09:06:40.161Z,102335.53
2023-03-01T09:09:07.441Z,102340.47
2023-03-01T09:11:34.222Z,102333.41
2023-03-01T09:14:01.122Z,102330.38
2023-03-01T09:16:27.745Z,102335.34
2023-03-01T09:18:55.462Z,102335.00
2023-03-01T09:21:37.646Z,102327.03
2023-03-01T09:24:06.377Z,102336.19
2023-03-01T09:26:33.290Z,102336.91
2023-03-01T09:29:00.044Z,102329.50
2023-03-01T09:31:26.524Z,102326.31
2023-03-01T09:33:54.865Z,102323.81
2023-03-01T09:36:24.236Z,102328.78
2023-03-01T09:38:51.180Z,102326.75
2023-03-01T09:41:27.618Z,102323.44
2023-03-01T09:43:58.935Z,102324.31
2023-03-01T09:46:26.771Z,102323.94
2023-03-01T09:48:59.742Z,102325.44
2023-03-01T09:51:31.968Z,102332.78
2023-03-01T09:53:59.705Z,102328.38
2023-03-01T09:56:38.284Z,102325.59
2023-03-01T09:59:12.886Z,102327.41
2023-03-01T10:01:58.341Z,102329.00
2023-03-01T10:04:43.994Z,102323.81
2023-03-01T10:07:10.424Z,102322.41
2023-03-01T10:09:43.084Z,102332.47
2023-03-01T10:12:12.734Z,102333.53
2023-03-01T10:14:59.800Z,102325.31
2023-03-01T10:17:35.845Z,102326.16
2023-03-01T10:20:16.392Z,102320.25
2023-03-01T10:22:43.257Z,102319.13
2023-03-01T10:25:14.201Z,102311.47
2023-03-01T10:27:43.653Z,102320.22
2023-03-01T10:30:33.611Z,102313.69
2023-03-01T10:33:01.014Z,102302.16
2023-03-01T10:35:30.449Z,102302.56
2023-03-01T10:38:08.041Z,102292.19
2023-03-01T10:40:36.019Z,102290.78
2023-03-01T10:43:06.751Z,102281.53
2023-03-01T10:45:38.739Z,102283.72
2023-03-01T10:48:27.103Z,102278.88
2023-03-01T10:50:59.462Z,102280.31
2023-03-01T10:53:52.729Z,102272.72
2023-03-01T10:56:19.249Z,102272.50
2023-03-01T10:59:02.889Z,102270.31
2023-03-01T11:01:35.807Z,102265.31
2023-03-01T11:04:08.484Z,102260.44
2023-03-01T11:06:36.548Z,102263.53
2023-03-01T11:09:23.531Z,102265.84
2023-03-01T11:11:54.575Z,102266.09
2023-03-01T11:14:27.541Z,102260.47
2023-03-01T11:17:06.068Z,102259.94
2023-03-01T11:19:33.360Z,102254.25
2023-03-01T11:22:17.602Z,102250.91
2023-03-01T11:25:08.827Z,102254.56
2023-03-01T11:27:40.172Z,102244.75
2023-03-01T11:30:17.022Z,102252.22
2023-03-01T11:33:09.286Z,102247.22
2023-03-01T11:35:39.014Z,102246.56
2023-03-01T11:38:22.464Z,102242.69
2023-03-01T11:41:00.859Z,102244.72
2023-03-01T11:43:53.606Z,102247.47
2023-03-01T11:46:38.077Z,102238.22
2023-03-01T11:49:21.142Z,102235.75
2023-03-01T11:51:56.833Z,102225.81
2023-03-01T11:54:54.740Z,102224.28
2023-03-01T11:57:46.590Z,102215.94
2023-03-01T12:00:28.175Z,102210.13
2023-03-01T12:03:12.869Z,102218.34
2023-03-01T12:05:54.532Z,102218.84
2023-03-01T12:08:24.495Z,102222.69
2023-03-01T12:11:18.535Z,102214.41
2023-03-01T12:14:14.328Z,102213.75
2023-03-01T12:17:16.217Z,102209.22
2023-03-01T12:19:58.616Z,102218.09
2023-03-01T12:23:19.603Z,102213.19
2023-03-01T12:25:54.384Z,102208.66
2023-03-01T12:28:30.946Z,102209.78
2023-03-01T12:31:16.159Z,102207.72
2023-03-01T12:33:52.639Z,102206.50
2023-03-01T12:36:25.059Z,102196.19
2023-03-01T12:39:04.624Z,102195.69
2023-03-01T12:41:44.814Z,102189.19
2023-03-01T12:44:52.679Z,102183.38
2023-03-01T12:47:57.694Z,102178.47
2023-03-01T12:50:26.515Z,102170.22
2023-03-01T12:52:59.309Z,102172.63
2023-03-01T12:55:28.738Z,102170.44
2023-03-01T12:58:03.585Z,102161.25
2023-03-01T13:00:47.406Z,102158.91
2023-03-01T13:03:26.801Z,102161.84
2023-03-01T13:06:09.708Z,102149.88
2023-03-01T13:08:58.058Z,102151.66
2023-03-01T13:11:25.026Z,102136.53
2023-03-01T13:13:52.684Z,102129.03
2023-03-01T13:16:22.329Z,102136.22
2023-03-01T13:18:48.857Z,102129.28
2023-03-01T13:21:30.505Z,102134.88
2023-03-01T13:23:56.994Z,102134.09
2023-03-01T13:26:23.563Z,102135.34
2023-03-01T13:28:58.261Z,102137.13
2023-03-01T13:31:27.807Z,102131.97
2023-03-01T13:34:08.379Z,102132.13
2023-03-01T13:36:37.863Z,102124.59
2023-03-01T13:39:06.510Z,102129.09
2023-03-01T13:41:42.203Z,102129.19
2023-03-01T13:44:27.315Z,102122.34
2023-03-01T13:47:00.458Z,102120.56
2023-03-01T13:49:45.404Z,102114.41
2023-03-01T13:52:43.067Z,102101.94
2023-03-01T13:55:15.738Z,102103.75
2023-03-01T13:57:45.805Z,102095.47
2023-03-01T14:00:27.684Z,102094.69
2023-03-01T14:03:11.871Z,102097.94
2023-03-01T14:05:40.073Z,102093.69
2023-03-01T14:08:19.835Z,102092.31
2023-03-01T14:11:12.504Z,102092.31
2023-03-01T14:14:03.913Z,102083.69
2023-03-01T14:16:39.892Z,102085.38
2023-03-01T14:19:20.248Z,102075.84
2023-03-01T14:22:20.506Z,102071.91
2023-03-01T14:25:22.193Z,102073.69
2023-03-01T14:27:56.670Z,102067.75
2023-03-01T14:30:25.880Z,102066.22
2023-03-01T14:32:56.288Z,102055.00
2023-03-01T14:35:28.777Z,102056.00
2023-03-01T14:37:55.522Z,102057.00
2023-03-01T14:40:28.499Z,102051.25
2023-03-01T14:42:57.886Z,102051.47
2023-03-01T14:45:27.120Z,102045.66
2023-03-01T14:47:54.815Z,102039.94
2023-03-01T14:50:35.684Z,102043.41
2023-03-01T14:53:07.312Z,102045.19
2023-03-01T14:55:39.268Z,102035.56
2023-03-01T14:58:07.525Z,102040.72
2023-03-01T15:00:35.007Z,102038.34
2023-03-01T15:03:14.223Z,102036.88
2023-03-01T15:05:42.875Z,102036.88
2023-03-01T15:08:24.370Z,102037.00
2023-03-01T15:11:07.374Z,102027.47
2023-03-01T15:13:36.646Z,102026.66
2023-03-01T15:16:09.968Z,102022.75
2023-03-01T15:18:37.730Z,102032.50
2023-03-01T15:21:17.236Z,102019.38
2023-03-01T15:23:54.363Z,102020.28
2023-03-01T15:26:31.906Z,102020.97
2023-03-01T15:29:00.055Z,102018.38
2023-03-01T15:31:29.688Z,102018.28
2023-03-01T15:34:28.665Z,102016.44
2023-03-01T15:36:58.145Z,102014.78
2023-03-01T15:39:44.165Z,102018.91
2023-03-01T15:42:30.691Z,102008.38
2023-03-01T15:45:26.631Z,102011.75
2023-03-01T15:48:02.908Z,102014.13
2023-03-01T15:50:33.966Z,102013.25
2023-03-01T15:53:01.884Z,102002.56
2023-03-01T15:55:31.028Z,102003.34
2023-03-01T15:58:05.194Z,102003.03
2023-03-01T16:00:31.867Z,102007.31
2023-03-01T16:02:58.465Z,102007.19
2023-03-01T16:05:26.141Z,102005.31
2023-03-01T16:07:53.219Z,102000.25
2023-03-01T16:10:20.035Z,102005.31
2023-03-01T16:12:48.442Z,102001.47
2023-03-01T16:15:19.226Z,102004.63
2023-03-01T16:17:46.193Z,102009.56
2023-03-01T16:20:19.594Z,102000.59
2023-03-01T16:22:49.424Z,102003.94
2023-03-01T16:25:17.930Z,102002.84
2023-03-01T16:27:45.969Z,102001.72
2023-03-01T16:30:14.384Z,102003.19
2023-03-01T16:32:42.093Z,102002.16
2023-03-01T16:35:10.522Z,102000.03
2023-03-01T16:37:37.705Z,101997.25
2023-03-01T16:40:05.472Z,102006.44
2023-03-01T16:42:35.965Z,102012.91
2023-03-01T16:45:05.369Z,102006.66
2023-03-01T16:47:34.133Z,102007.09
2023-03-01T16:50:00.651Z,102012.00
2023-03-01T16:52:27.121Z,102015.16
2023-03-01T16:54:53.529Z,102013.13
2023-03-01T16:59:47.339Z,102021.84
2023-03-01T17:02:15.760Z,102019.84
2023-03-01T17:04:42.165Z,102028.09
2023-03-01T17:07:08.639Z,102026.06
2023-03-01T17:09:37.338Z,102030.09
2023-03-01T17:12:06.912Z,102034.13
2023-03-01T17:14:33.367Z,102039.69
2023-03-01T17:17:02.645Z,102032.41
2023-03-01T17:19:29.654Z,102034.50
2023-03-01T17:21:56.135Z,102034.94
2023-03-01T17:24:22.547Z,102022.34
2023-03-01T17:26:48.990Z,102031.28
2023-03-01T17:29:18.311Z,102040.34
2023-03-01T17:31:44.786Z,102031.25
2023-03-01T17:34:11.281Z,102038.63
2023-03-01T17:36:44.007Z,102043.25
2023-03-01T17:39:11.305Z,102048.06
2023-03-01T17:41:37.845Z,102056.19
2023-03-01T17:44:04.455Z,102060.81
2023-03-01T17:46:30.900Z,102065.47
2023-03-01T17:48:57.360Z,102067.41
2023-03-01T17:51:23.748Z,102066.03
2023-03-01T17:53:50.172Z,102063.50
2023-03-01T17:56:16.745Z,102073.25
2023-03-01T17:58:43.167Z,102076.13
2023-03-01T18:01:15.875Z,102073.81
2023-03-01T18:03:46.471Z,102072.44
2023-03-01T18:06:22.151Z,102077.69
2023-03-01T18:08:50.662Z,102072.97
2023-03-01T18:11:18.507Z,102068.19
2023-03-01T18:13:47.626Z,102059.47
2023-03-01T18:16:15.680Z,102059.22
2023-03-01T18:18:42.320Z,102058.97
2023-03-01T18:21:09.198Z,102052.69
2023-03-01T18:23:36.037Z,102054.09
2023-03-01T18:26:06.263Z,102051.16
2023-03-01T18:28:33.407Z,102056.94
2023-03-01T18:31:05.925Z,102059.88
2023-03-01T18:33:32.752Z,102056.16
2023-03-01T18:35:59.211Z,102050.78
2023-03-01T18:38:25.723Z,102049.75
2023-03-01T18:40:52.927Z,102049.22
2023-03-01T18:43:19.571Z,102047.16
2023-03-01T18:45:46.060Z,102036.66
2023-03-01T18:48:14.167Z,102041.25
2023-03-01T18:50:41.243Z,102044.84
2023-03-01T18:53:08.008Z,102050.09
2023-03-01T18:55:39.044Z,102053.53
2023-03-01T18:58:05.969Z,102053.78
2023-03-01T19:00:33.404Z,102053.13
2023-03-01T19:03:01.238Z,102051.69
2023-03-01T19:05:28.964Z,102058.84
2023-03-01T19:07:55.496Z,102054.47
2023-03-01T19:10:21.957Z,102055.88
2023-03-01T19:12:48.457Z,102056.28
2023-03-01T19:15:16.289Z,102067.28
2023-03-01T19:17:45.749Z,102058.41
2023-03-01T19:20:12.676Z,102054.81
2023-03-01T19:22:39.380Z,102048.41
2023-03-01T19:25:06.393Z,102049.03
2023-03-01T19:27:32.887Z,102050.41
2023-03-01T19:29:59.342Z,102048.59
2023-03-01T19:32:25.851Z,102051.94
2023-03-01T19:34:52.300Z,102053.47
2023-03-01T19:37:18.735Z,102054.09
2023-03-01T19:39:45.227Z,102058.06
2023-03-01T19:42:12.144Z,102060.97
2023-03-01T19:44:39.647Z,102061.97
2023-03-01T19:47:06.129Z,102055.38
2023-03-01T19:49:32.839Z,102060.13
2023-03-01T19:51:59.304Z,102067.41
2023-03-01T19:54:25.786Z,102069.53
2023-03-01T19:56:52.209Z,102059.78
2023-03-01T19:59:24.097Z,102058.47
2023-03-01T20:01:51.602Z,102056.25
2023-03-01T20:04:18.169Z,102060.81
2023-03-01T20:06:48.362Z,102057.06
2023-03-01T20:09:21.894Z,102062.94
2023-03-01T20:11:49.370Z,102057.81
2023-03-01T20:14:15.841Z,102061.28
2023-03-01T20:16:42.294Z,102067.94
2023-03-01T20:19:08.885Z,102062.41
2023-03-01T20:21:35.347Z,102063.94
2023-03-01T20:24:02.095Z,102074.63
2023-03-01T20:26:29.275Z,102067.44
2023-03-01T20:28:57.140Z,102076.38
2023-03-01T20:31:29.185Z,102068.53
2023-03-01T20:33:57.754Z,102068.25
2023-03-01T20:36:24.732Z,102068.72
2023-03-01T20:38:56.070Z,102075.22
2023-03-01T20:41:25.892Z,102075.72
2023-03-01T20:43:56.762Z,102077.81
2023-03-01T20:46:25.614Z,102072.16
2023-03-01T20:48:52.669Z,102069.16
2023-03-01T20:51:19.661Z,102072.31
2023-03-01T20:53:46.191Z,102068.59
2023-03-01T20:56:15.117Z,102069.84
2023-03-01T20:58:41.988Z,102066.06
2023-03-01T21:01:09.850Z,102070.00
2023-03-01T21:03:36.602Z,102066.13
2023-03-01T21:06:06.096Z,102070.19
2023-03-01T21:08:33.376Z,102063.72
2023-03-01T21:10:59.845Z,102064.22
2023-03-01T21:13:27.105Z,102059.72
2023-03-01T21:16:03.327Z,102064.53
2023-03-01T21:18:30.179Z,102054.91
2023-03-01T21:21:01.063Z,102053.72
2023-03-01T21:23:29.142Z,102048.31
2023-03-01T21:26:02.072Z,102054.81
2023-03-01T21:28:32.245Z,102051.34
2023-03-01T21:31:13.117Z,102047.72
2023-03-01T21:33:43.271Z,102051.94
2023-03-01T21:36:10.093Z,102046.69
2023-03-01T21:38:39.013Z,102043.22
2023-03-01T21:41:06.613Z,102036.03
2023-03-01T21:43:33.542Z,102028.09
2023-03-01T21:46:04.846Z,102025.22
2023-03-01T21:48:31.912Z,102022.38
2023-03-01T21:51:01.057Z,102017.72
2023-03-01T21:53:30.271Z,102025.88
2023-03-01T21:55:57.293Z,102014.59
2023-03-01T21:58:25.535Z,102012.50
2023-03-01T22:00:52.213Z,102013.25
2023-03-01T22:03:18.793Z,102001.09
2023-03-01T22:05:57.329Z,102005.00
2023-03-01T22:08:23.878Z,102001.41
2023-03-01T22:10:50.865Z,101990.88
2023-03-01T22:13:17.601Z,101988.94
2023-03-01T22:15:44.312Z,101989.56
2023-03-01T22:18:11.867Z,101991.22
2023-03-01T22:20:40.018Z,101995.41
2023-03-01T22:23:06.732Z,102002.03
2023-03-01T22:25:33.482Z,102005.34
2023-03-01T22:27:59.905Z,101998.44
2023-03-01T22:30:26.430Z,102008.81
2023-03-01T22:32:52.936Z,102004.59
2023-03-01T22:35:19.725Z,101999.47
2023-03-01T22:37:46.165Z,101997.69
2023-03-01T22:40:12.616Z,101994.38
2023-03-01T22:42:39.023Z,101990.03
2023-03-01T22:45:05.864Z,102000.25
2023-03-01T22:47:32.273Z,102002.19
2023-03-01T22:49:58.691Z,101991.97
2023-03-01T22:52:25.265Z,101993.63
2023-03-01T22:54:54.358Z,101992.72
2023-03-01T22:57:20.776Z,101992.88
2023-03-01T22:59:47.207Z,101991.97
2023-03-01T23:02:13.749Z,101990.16
2023-03-01T23:04:40.272Z,101991.06
2023-03-01T23:07:06.687Z,101989.25
2023-03-01T23:09:34.292Z,101992.72
2023-03-01T23:12:02.425Z,101990.78
2023-03-01T23:14:30.503Z,101994.22
2023-03-01T23:16:57.179Z,101997.38
2023-03-01T23:19:23.618Z,101990.47
2023-03-01T23:21:50.563Z,101989.56
2023-03-01T23:24:18.700Z,101996.19
2023-03-01T23:26:45.739Z,101985.81
2023-03-01T23:29:12.268Z,101984.78
2023-03-01T23:31:38.697Z,101980.13
2023-03-01T23:34:05.124Z,101983.44
2023-03-01T23:36:33.892Z,101989.28
2023-03-01T23:39:06.534Z,101984.78
2023-03-01T23:41:34.227Z,101994.09
2023-03-01T23:44:02.400Z,101995.59
2023-03-01T23:46:32.813Z,101989.91
2023-03-01T23:48:59.695Z,102000.56
2023-03-01T23:51:26.990Z,101987.22
2023-03-01T23:53:59.916Z,101993.81
2023-03-01T23:56:35.684Z,102000.28
2023-03-01T23:59:05.983Z,101986.31
